createdAt,value
2017-12-09T00:02:10.903Z,59.65
2017-12-09T00:04:38.494Z,60.71
2017-12-09T00:07:06.189Z,62.80
2017-12-09T00:09:33.746Z,61.70
2017-12-09T00:12:02.178Z,62.89
2017-12-09T00:14:29.873Z,62.83
2017-12-09T00:16:57.475Z,63.74
2017-12-09T00:19:25.461Z,64.02
2017-12-09T00:21:53.071Z,66.27
2017-12-09T00:24:20.902Z,66.12
2017-12-09T00:26:48.533Z,65.73
2017-12-09T00:29:16.288Z,65.67
2017-12-09T00:31:44.438Z,65.89
2017-12-09T00:34:12.061Z,65.15
2017-12-09T00:36:39.827Z,65.59
2017-12-09T00:39:07.515Z,63.49
2017-12-09T00:41:35.074Z,63.66
2017-12-09T00:44:02.837Z,64.16
2017-12-09T00:46:31.046Z,63.17
2017-12-09T00:48:58.714Z,62.29
2017-12-09T00:51:26.328Z,62.56
2017-12-09T00:53:53.921Z,63.21
2017-12-09T00:56:21.455Z,63.18
2017-12-09T00:58:49.245Z,62.28
2017-12-09T01:01:16.778Z,62.44
2017-12-09T01:03:44.417Z,61.49
2017-12-09T01:06:11.992Z,59.59
2017-12-09T01:08:39.606Z,65.21
2017-12-09T01:11:07.164Z,64.11
2017-12-09T01:13:34.742Z,63.74
2017-12-09T01:16:13.937Z,64.03
2017-12-09T01:18:53.566Z,62.53
2017-12-09T01:21:21.267Z,62.53
2017-12-09T01:23:49.795Z,62.99
2017-12-09T01:26:17.511Z,62.83
2017-12-09T01:28:46.060Z,65.73
2017-12-09T01:31:13.778Z,62.50
2017-12-09T01:33:41.528Z,65.74
2017-12-09T01:36:09.936Z,63.60
2017-12-09T01:38:37.677Z,63.20
2017-12-09T01:41:05.269Z,65.43
2017-12-09T01:43:33.929Z,66.29
2017-12-09T01:46:01.750Z,65.67
2017-12-09T01:48:30.247Z,66.91
2017-12-09T01:50:59.079Z,65.17
2017-12-09T01:53:26.907Z,64.87
2017-12-09T01:55:54.491Z,64.37
2017-12-09T01:58:22.116Z,63.32
2017-12-09T02:00:49.658Z,63.43
2017-12-09T02:03:17.250Z,63.42
2017-12-09T02:05:45.782Z,63.10
2017-12-09T02:08:13.596Z,63.65
2017-12-09T02:10:41.563Z,63.38
2017-12-09T02:13:09.460Z,61.59
2017-12-09T02:15:37.331Z,62.12
2017-12-09T02:18:05.139Z,62.83
2017-12-09T02:20:32.971Z,63.50
2017-12-09T02:23:00.961Z,63.44
2017-12-09T02:25:29.531Z,65.63
2017-12-09T02:27:57.822Z,66.88
2017-12-09T02:30:26.345Z,65.90
2017-12-09T02:32:54.908Z,65.38
2017-12-09T02:35:22.938Z,64.04
2017-12-09T02:37:50.566Z,62.42
2017-12-09T02:40:18.174Z,63.84
2017-12-09T02:42:45.859Z,63.16
2017-12-09T02:45:13.691Z,63.31
2017-12-09T02:47:41.300Z,64.08
2017-12-09T02:50:09.658Z,63.27
2017-12-09T02:52:37.965Z,64.33
2017-12-09T02:55:05.595Z,63.48
2017-12-09T02:57:33.176Z,62.88
2017-12-09T03:00:00.986Z,62.63
2017-12-09T03:02:28.677Z,63.16
2017-12-09T03:04:56.238Z,62.71
2017-12-09T03:07:24.492Z,62.55
2017-12-09T03:09:52.119Z,62.76
2017-12-09T03:12:20.167Z,63.64
2017-12-09T03:14:48.827Z,63.51
2017-12-09T03:17:16.474Z,64.12
2017-12-09T03:19:45.813Z,63.68
2017-12-09T03:22:13.480Z,63.53
2017-12-09T03:24:41.077Z,61.90
2017-12-09T03:27:08.894Z,63.02
2017-12-09T03:29:36.697Z,63.72
2017-12-09T03:32:04.290Z,63.12
2017-12-09T03:34:32.105Z,64.73
2017-12-09T03:37:00.866Z,64.14
2017-12-09T03:39:28.487Z,64.39
2017-12-09T03:41:56.773Z,64.53
2017-12-09T03:44:24.588Z,63.91
2017-12-09T03:46:52.405Z,64.11
2017-12-09T03:49:19.980Z,63.34
2017-12-09T03:51:47.544Z,62.07
2017-12-09T03:54:15.355Z,61.79
2017-12-09T03:56:44.101Z,63.53
2017-12-09T03:59:12.144Z,63.45
2017-12-09T04:01:39.743Z,63.05
2017-12-09T04:04:07.634Z,63.70
2017-12-09T04:06:35.277Z,62.48
2017-12-09T04:09:03.929Z,62.12
2017-12-09T04:11:31.675Z,62.37
2017-12-09T04:13:59.427Z,63.76
2017-12-09T04:16:27.098Z,63.30
2017-12-09T04:18:54.698Z,64.01
2017-12-09T04:21:22.300Z,62.04
2017-12-09T04:23:50.113Z,62.95
2017-12-09T04:26:17.773Z,65.03
2017-12-09T04:28:45.355Z,66.03
2017-12-09T04:31:12.930Z,66.18
2017-12-09T04:33:40.504Z,65.02
2017-12-09T04:36:08.421Z,65.61
2017-12-09T04:38:36.152Z,63.47
2017-12-09T04:41:03.713Z,64.04
2017-12-09T04:43:32.423Z,63.83
2017-12-09T04:46:00.042Z,63.61
2017-12-09T04:48:27.606Z,64.86
2017-12-09T04:50:55.932Z,64.03
2017-12-09T04:53:23.562Z,63.08
2017-12-09T04:55:51.933Z,64.25
2017-12-09T04:58:20.290Z,63.45
2017-12-09T05:00:48.661Z,63.51
2017-12-09T05:03:16.304Z,63.13
2017-12-09T05:05:43.893Z,62.60
2017-12-09T05:08:12.248Z,63.53
2017-12-09T05:10:40.019Z,64.58
2017-12-09T05:13:07.644Z,63.22
2017-12-09T05:15:36.777Z,63.74
2017-12-09T05:18:04.731Z,65.35
2017-12-09T05:20:32.359Z,64.34
2017-12-09T05:22:59.998Z,64.06
2017-12-09T05:25:28.005Z,63.51
2017-12-09T05:27:56.492Z,63.71
2017-12-09T05:30:24.306Z,63.44
2017-12-09T05:32:51.848Z,63.40
2017-12-09T05:35:19.456Z,63.15
2017-12-09T05:37:47.071Z,64.36
2017-12-09T05:40:14.855Z,64.20
2017-12-09T05:42:42.672Z,62.97
2017-12-09T05:45:10.258Z,63.18
2017-12-09T05:47:38.186Z,63.16
2017-12-09T05:50:06.041Z,62.87
2017-12-09T05:52:33.672Z,64.11
2017-12-09T05:55:01.256Z,62.82
2017-12-09T05:57:29.044Z,60.96
2017-12-09T05:59:58.261Z,61.35
2017-12-09T06:02:25.917Z,59.72
2017-12-09T06:04:53.489Z,59.07
2017-12-09T06:07:21.059Z,57.49
2017-12-09T06:09:48.701Z,56.33
2017-12-09T06:12:18.445Z,54.69
2017-12-09T06:14:46.349Z,54.09
2017-12-09T06:17:14.133Z,53.34
2017-12-09T06:19:41.904Z,51.54
2017-12-09T06:22:09.791Z,50.64
2017-12-09T06:24:37.562Z,48.67
2017-12-09T06:27:06.329Z,47.67
2017-12-09T06:36:34.719Z,47.73
2017-12-09T06:39:02.702Z,47.44
2017-12-09T06:41:30.492Z,49.86
2017-12-09T06:43:58.273Z,49.84
2017-12-09T06:46:26.032Z,49.06
2017-12-09T06:49:01.423Z,49.00
2017-12-09T06:51:30.695Z,47.01
2017-12-09T06:53:59.313Z,47.45
2017-12-09T06:56:27.050Z,47.19
2017-12-09T06:58:54.711Z,46.00
2017-12-09T07:01:22.462Z,48.31
2017-12-09T07:03:50.265Z,45.96
2017-12-09T07:06:18.405Z,48.40
2017-12-09T07:08:46.203Z,47.83
2017-12-09T07:11:14.931Z,46.56
2017-12-09T07:13:42.777Z,47.96
2017-12-09T07:16:11.232Z,49.32
2017-12-09T07:18:39.207Z,48.97
2017-12-09T07:21:07.991Z,49.83
2017-12-09T07:23:37.335Z,50.50
2017-12-09T07:26:05.148Z,50.78
2017-12-09T07:28:32.812Z,53.35
2017-12-09T07:31:01.243Z,51.88
2017-12-09T07:33:28.915Z,51.55
2017-12-09T07:35:58.358Z,53.93
2017-12-09T07:38:26.411Z,52.75
2017-12-09T07:40:54.827Z,51.31
2017-12-09T07:43:29.047Z,51.43
2017-12-09T07:46:04.029Z,51.18
2017-12-09T07:48:31.983Z,50.92
2017-12-09T07:51:01.133Z,50.70
2017-12-09T07:53:30.685Z,48.86
2017-12-09T07:56:13.535Z,50.61
2017-12-09T07:58:42.071Z,54.16
2017-12-09T08:01:09.763Z,50.49
2017-12-09T08:03:37.897Z,54.11
2017-12-09T08:06:05.573Z,52.05
2017-12-09T08:08:34.988Z,51.74
2017-12-09T08:11:02.790Z,53.22
2017-12-09T08:13:31.407Z,51.79
2017-12-09T08:16:00.262Z,51.61
2017-12-09T08:18:28.098Z,53.74
2017-12-09T08:23:28.437Z,52.80
2017-12-09T08:25:56.121Z,51.74
2017-12-09T08:28:23.776Z,54.34
2017-12-09T08:30:52.063Z,52.51
2017-12-09T08:33:19.795Z,54.35
2017-12-09T08:35:48.095Z,53.46
2017-12-09T08:38:15.833Z,52.61
2017-12-09T08:40:43.930Z,50.29
2017-12-09T08:43:12.643Z,50.31
2017-12-09T08:45:40.420Z,51.53
2017-12-09T08:48:08.116Z,51.14
2017-12-09T08:50:36.016Z,51.03
2017-12-09T08:53:03.759Z,52.07
2017-12-09T08:55:31.412Z,51.63
2017-12-09T08:57:59.021Z,49.57
2017-12-09T09:00:27.093Z,51.97
2017-12-09T09:02:55.506Z,51.09
2017-12-09T09:05:23.184Z,52.09
2017-12-09T09:07:50.883Z,49.83
2017-12-09T09:10:18.636Z,49.57
2017-12-09T09:12:46.237Z,52.01
2017-12-09T09:15:14.131Z,51.29
2017-12-09T09:17:41.761Z,50.43
2017-12-09T09:20:09.386Z,49.16
2017-12-09T09:22:36.981Z,50.71
2017-12-09T09:25:04.554Z,49.59
2017-12-09T09:27:32.342Z,49.88
2017-12-09T09:30:00.125Z,48.91
2017-12-09T09:32:27.829Z,49.95
2017-12-09T09:34:55.639Z,47.11
2017-12-09T09:37:23.244Z,47.20
2017-12-09T09:39:51.590Z,47.31
2017-12-09T09:42:19.425Z,46.95
2017-12-09T09:44:47.194Z,49.48
2017-12-09T09:47:14.826Z,48.81
2017-12-09T09:49:42.397Z,50.33
2017-12-09T09:52:10.101Z,49.88
2017-12-09T09:54:37.965Z,47.51
2017-12-09T09:57:05.617Z,47.80
2017-12-09T09:59:33.469Z,47.25
2017-12-09T10:02:02.954Z,48.69
2017-12-09T10:04:30.599Z,49.23
2017-12-09T10:06:58.186Z,47.12
2017-12-09T10:09:25.793Z,48.06
2017-12-09T10:11:53.542Z,46.39
2017-12-09T10:14:21.101Z,45.83
2017-12-09T10:16:48.663Z,45.97
2017-12-09T10:19:16.260Z,48.24
2017-12-09T10:21:44.050Z,48.09
2017-12-09T10:24:11.760Z,46.98
2017-12-09T10:26:39.319Z,45.41
2017-12-09T10:29:07.674Z,45.76
2017-12-09T10:31:35.275Z,47.26
2017-12-09T10:34:02.917Z,44.45
2017-12-09T10:36:30.539Z,43.99
2017-12-09T10:38:58.117Z,45.30
2017-12-09T10:41:25.720Z,45.00
2017-12-09T10:43:53.324Z,45.91
2017-12-09T10:46:20.916Z,45.45
2017-12-09T10:48:48.710Z,45.01
2017-12-09T10:51:16.315Z,43.86
2017-12-09T10:53:43.974Z,45.79
2017-12-09T10:56:11.801Z,43.08
2017-12-09T10:58:39.733Z,41.52
2017-12-09T11:01:07.330Z,43.82
2017-12-09T11:03:34.937Z,43.21
2017-12-09T11:06:02.570Z,45.05
2017-12-09T11:08:30.164Z,44.75
2017-12-09T11:10:57.796Z,43.30
2017-12-09T11:13:25.361Z,43.40
2017-12-09T11:15:53.030Z,43.63
2017-12-09T11:18:20.596Z,42.39
2017-12-09T11:20:48.247Z,41.85
2017-12-09T11:23:15.866Z,40.95
2017-12-09T11:25:43.984Z,41.98
2017-12-09T11:28:11.606Z,42.66
2017-12-09T11:30:39.192Z,43.44
2017-12-09T11:33:06.754Z,43.20
2017-12-09T11:35:34.830Z,45.12
2017-12-09T11:38:02.480Z,45.95
2017-12-09T11:40:30.098Z,43.27
2017-12-09T11:42:57.701Z,43.99
2017-12-09T11:45:25.298Z,43.71
2017-12-09T11:47:52.862Z,43.82
2017-12-09T11:50:20.482Z,43.41
2017-12-09T11:52:48.101Z,40.57
2017-12-09T11:55:15.710Z,38.45
2017-12-09T11:57:43.322Z,38.81
2017-12-09T12:00:10.951Z,39.80
2017-12-09T12:02:39.563Z,39.79
2017-12-09T12:05:07.134Z,36.23
2017-12-09T12:07:34.744Z,36.52
2017-12-09T12:10:02.383Z,34.37
2017-12-09T12:12:29.960Z,34.76
2017-12-09T12:14:57.552Z,34.78
2017-12-09T12:17:25.149Z,34.35
2017-12-09T12:19:52.761Z,33.52
2017-12-09T12:22:20.337Z,33.31
2017-12-09T12:24:48.129Z,34.58
2017-12-09T12:27:15.713Z,34.92
2017-12-09T12:29:43.633Z,36.26
2017-12-09T12:32:11.288Z,33.25
2017-12-09T12:34:39.089Z,31.80
2017-12-09T12:37:06.852Z,31.70
2017-12-09T12:39:34.471Z,31.54
2017-12-09T12:42:02.273Z,32.15
2017-12-09T12:44:29.823Z,32.35
2017-12-09T12:46:57.468Z,32.62
2017-12-09T12:49:25.109Z,32.55
2017-12-09T12:52:09.156Z,32.48
2017-12-09T12:54:37.631Z,32.35
2017-12-09T12:57:08.693Z,32.28
2017-12-09T13:02:35.784Z,32.85
2017-12-09T13:05:08.418Z,32.32
2017-12-09T13:07:39.856Z,32.08
2017-12-09T13:10:09.116Z,30.73
2017-12-09T13:12:44.087Z,30.89
2017-12-09T13:15:13.738Z,31.44
2017-12-09T13:17:50.168Z,31.27
2017-12-09T13:20:40.836Z,32.64
2017-12-09T13:23:12.637Z,32.18
2017-12-09T13:28:29.458Z,31.87
2017-12-09T13:30:57.136Z,31.97
2017-12-09T13:33:24.735Z,32.05
2017-12-09T13:35:53.161Z,32.05
2017-12-09T13:38:21.085Z,32.35
2017-12-09T13:40:48.886Z,31.79
2017-12-09T13:43:17.406Z,31.96
2017-12-09T13:45:46.229Z,32.49
2017-12-09T13:48:20.328Z,32.55
2017-12-09T13:50:58.274Z,32.12
2017-12-09T13:56:16.629Z,32.73
2017-12-09T13:58:46.980Z,32.12
2017-12-09T14:01:14.814Z,31.96
2017-12-09T14:03:42.392Z,31.54
2017-12-09T14:06:09.966Z,31.77
2017-12-09T14:08:37.559Z,32.77
2017-12-09T14:11:05.162Z,33.04
2017-12-09T14:13:32.888Z,33.01
2017-12-09T14:16:00.501Z,33.33
2017-12-09T14:18:28.962Z,33.41
2017-12-09T14:20:56.573Z,34.01
2017-12-09T14:23:26.480Z,34.81
2017-12-09T14:29:02.110Z,34.70
2017-12-09T14:31:30.268Z,34.98
2017-12-09T14:33:57.892Z,35.36
2017-12-09T14:36:25.515Z,35.54
2017-12-09T14:38:53.285Z,35.29
2017-12-09T14:41:20.965Z,35.22
2017-12-09T14:43:48.591Z,34.78
2017-12-09T14:46:23.666Z,35.67
2017-12-09T14:48:51.223Z,35.83
2017-12-09T14:51:19.167Z,35.27
2017-12-09T14:53:46.819Z,35.88
2017-12-09T14:56:14.392Z,36.08
2017-12-09T14:58:41.990Z,36.01
2017-12-09T15:01:09.993Z,36.08
2017-12-09T15:03:37.590Z,35.80
2017-12-09T15:06:05.460Z,35.64
2017-12-09T15:08:33.320Z,35.59
2017-12-09T15:11:01.866Z,36.01
2017-12-09T15:13:29.657Z,35.77
2017-12-09T15:15:57.635Z,36.27
2017-12-09T15:18:25.393Z,36.03
2017-12-09T15:20:53.015Z,36.32
2017-12-09T15:23:20.727Z,36.35
2017-12-09T15:25:48.406Z,36.46
2017-12-09T15:28:16.243Z,36.35
2017-12-09T15:30:44.032Z,36.26
2017-12-09T15:33:11.710Z,36.88
2017-12-09T15:35:39.318Z,36.72
2017-12-09T15:38:07.720Z,36.84
2017-12-09T15:40:35.423Z,36.44
2017-12-09T15:43:02.971Z,37.04
2017-12-09T15:45:30.644Z,37.10
2017-12-09T15:47:58.974Z,36.77
2017-12-09T15:50:27.413Z,36.67
2017-12-09T15:52:55.228Z,36.38
2017-12-09T15:55:23.531Z,36.32
2017-12-09T15:57:51.276Z,36.46
2017-12-09T16:00:19.299Z,37.05
2017-12-09T16:02:46.883Z,37.07
2017-12-09T16:05:14.458Z,37.05
2017-12-09T16:07:42.751Z,36.92
2017-12-09T16:10:13.315Z,36.70
2017-12-09T16:12:41.273Z,37.21
2017-12-09T16:15:09.226Z,37.57
2017-12-09T16:17:37.283Z,37.98
2017-12-09T16:20:04.882Z,36.93
2017-12-09T16:22:32.464Z,36.99
2017-12-09T16:25:00.324Z,36.84
2017-12-09T16:27:27.966Z,36.85
2017-12-09T16:29:56.724Z,37.11
2017-12-09T16:32:24.465Z,37.42
2017-12-09T16:34:52.051Z,37.59
2017-12-09T16:37:19.720Z,37.60
2017-12-09T16:39:47.401Z,37.23
2017-12-09T16:42:14.986Z,37.44
2017-12-09T16:44:42.554Z,37.60
2017-12-09T16:47:10.162Z,37.75
2017-12-09T16:49:37.789Z,37.07
2017-12-09T16:52:05.710Z,38.10
2017-12-09T16:54:33.317Z,38.26
2017-12-09T16:57:00.904Z,40.39
2017-12-09T16:59:29.342Z,44.65
2017-12-09T17:01:57.393Z,38.90
2017-12-09T17:04:25.302Z,37.74
2017-12-09T17:06:52.856Z,38.03
2017-12-09T17:09:21.910Z,37.63
2017-12-09T17:11:49.557Z,37.54
2017-12-09T17:14:18.002Z,37.42
2017-12-09T17:16:45.607Z,37.27
2017-12-09T17:19:13.496Z,37.81
2017-12-09T17:21:41.145Z,38.27
2017-12-09T17:24:08.878Z,37.97
2017-12-09T17:26:36.790Z,37.84
2017-12-09T17:29:04.581Z,38.16
2017-12-09T17:31:32.339Z,38.35
2017-12-09T17:34:00.226Z,38.11
2017-12-09T17:36:28.165Z,38.36
2017-12-09T17:38:55.946Z,38.46
2017-12-09T17:41:24.031Z,37.90
2017-12-09T17:43:52.496Z,37.31
2017-12-09T17:46:20.205Z,37.39
2017-12-09T17:48:48.705Z,38.67
2017-12-09T17:51:16.359Z,38.13
2017-12-09T17:53:44.450Z,39.03
2017-12-09T17:56:12.074Z,39.42
2017-12-09T17:58:39.717Z,38.53
2017-12-09T18:01:09.486Z,38.80
2017-12-09T18:03:38.641Z,39.31
2017-12-09T18:06:08.909Z,39.09
2017-12-09T18:08:37.612Z,38.74
2017-12-09T18:11:05.579Z,38.44
2017-12-09T18:13:33.376Z,39.02
2017-12-09T18:16:01.112Z,39.43
2017-12-09T18:18:29.716Z,39.20
2017-12-09T18:20:58.044Z,40.24
2017-12-09T18:23:26.098Z,39.97
2017-12-09T18:25:54.636Z,40.12
2017-12-09T18:28:22.452Z,40.95
2017-12-09T18:30:50.128Z,41.15
2017-12-09T18:33:18.587Z,41.22
2017-12-09T18:35:47.278Z,41.28
2017-12-09T18:38:15.018Z,40.46
2017-12-09T18:40:42.722Z,40.90
2017-12-09T18:43:10.382Z,41.26
2017-12-09T18:45:38.425Z,41.77
2017-12-09T18:48:06.234Z,42.70
2017-12-09T18:50:34.461Z,42.68
2017-12-09T18:53:02.492Z,43.93
2017-12-09T18:55:32.097Z,44.46
2017-12-09T18:58:00.077Z,44.37
2017-12-09T19:00:29.322Z,44.73
2017-12-09T19:02:57.411Z,45.34
2017-12-09T19:05:26.788Z,45.96
2017-12-09T19:07:57.242Z,46.04
2017-12-09T19:10:26.427Z,46.44
2017-12-09T19:13:00.367Z,46.70
2017-12-09T19:15:28.046Z,45.94
2017-12-09T19:17:55.730Z,46.30
2017-12-09T19:20:23.565Z,46.89
2017-12-09T19:22:51.211Z,46.65
2017-12-09T19:25:19.751Z,49.76
2017-12-09T19:27:47.845Z,47.44
2017-12-09T19:30:15.470Z,46.72
2017-12-09T19:32:43.395Z,47.71
2017-12-09T19:35:11.404Z,48.20
2017-12-09T19:37:39.047Z,48.17
2017-12-09T19:40:06.698Z,47.89
2017-12-09T19:42:34.412Z,48.89
2017-12-09T19:45:02.019Z,49.78
2017-12-09T19:47:29.661Z,49.06
2017-12-09T19:49:57.258Z,49.92
2017-12-09T19:52:25.701Z,49.17
2017-12-09T19:54:53.543Z,49.15
2017-12-09T19:57:21.380Z,50.57
2017-12-09T19:59:49.686Z,50.27
2017-12-09T20:02:18.008Z,51.19
2017-12-09T20:04:46.323Z,50.66
2017-12-09T20:07:13.956Z,50.62
2017-12-09T20:09:41.800Z,51.65
2017-12-09T20:12:09.546Z,51.10
2017-12-09T20:14:38.067Z,51.00
2017-12-09T20:17:06.034Z,51.14
2017-12-09T20:19:33.715Z,51.86
2017-12-09T20:22:01.350Z,51.93
2017-12-09T20:24:28.959Z,51.85
2017-12-09T20:26:57.201Z,51.79
2017-12-09T20:29:25.088Z,51.18
2017-12-09T20:31:52.699Z,50.56
2017-12-09T20:34:20.347Z,61.68
2017-12-09T20:36:48.795Z,50.82
2017-12-09T20:39:17.403Z,50.75
2017-12-09T20:41:45.259Z,50.56
2017-12-09T20:44:12.910Z,51.45
2017-12-09T20:46:41.565Z,50.68
2017-12-09T20:49:09.410Z,50.01
2017-12-09T20:51:37.062Z,49.90
2017-12-09T20:54:05.624Z,49.33
2017-12-09T20:56:33.379Z,49.99
2017-12-09T20:59:01.130Z,49.73
2017-12-09T21:01:28.850Z,48.94
2017-12-09T21:03:56.522Z,49.21
2017-12-09T21:06:24.453Z,49.44
2017-12-09T21:08:52.283Z,50.23
2017-12-09T21:11:19.977Z,50.11
2017-12-09T21:13:47.757Z,49.72
2017-12-09T21:16:15.994Z,50.58
2017-12-09T21:18:43.649Z,50.26
2017-12-09T21:21:11.285Z,50.50
2017-12-09T21:23:39.061Z,50.86
2017-12-09T21:26:07.225Z,50.65
2017-12-09T21:28:35.074Z,49.77
2017-12-09T21:31:02.712Z,49.67
2017-12-09T21:33:30.474Z,49.26
2017-12-09T21:35:58.294Z,49.31
2017-12-09T21:38:26.005Z,49.27
2017-12-09T21:40:53.617Z,49.53
2017-12-09T21:43:21.448Z,48.94
2017-12-09T21:45:49.152Z,49.02
2017-12-09T21:48:16.781Z,48.92
2017-12-09T21:50:45.271Z,49.51
2017-12-09T21:53:13.139Z,49.92
2017-12-09T21:55:41.110Z,49.67
2017-12-09T21:58:08.720Z,50.01
2017-12-09T22:00:36.527Z,50.20
2017-12-09T22:03:05.131Z,51.43
2017-12-09T22:05:32.807Z,50.82
2017-12-09T22:08:00.518Z,50.21
2017-12-09T22:10:28.079Z,50.16
2017-12-09T22:12:55.667Z,50.39
2017-12-09T22:15:23.314Z,51.83
2017-12-09T22:17:51.139Z,51.91
2017-12-09T22:20:19.123Z,53.50
2017-12-09T22:22:47.632Z,57.53
2017-12-09T22:25:15.612Z,59.65
2017-12-09T22:27:44.529Z,61.69
2017-12-09T22:30:12.286Z,63.82
2017-12-09T22:32:40.820Z,65.48
2017-12-09T22:35:10.217Z,66.97
2017-12-09T22:37:38.956Z,67.37
2017-12-09T22:40:06.597Z,68.64
2017-12-09T22:42:34.276Z,69.32
2017-12-09T22:45:02.096Z,70.04
2017-12-09T22:47:30.142Z,69.64
2017-12-09T22:49:58.125Z,69.00
2017-12-09T22:52:25.895Z,68.67
2017-12-09T22:54:53.989Z,69.10
2017-12-09T22:57:21.707Z,69.18
2017-12-09T22:59:49.330Z,69.56
2017-12-09T23:02:16.985Z,69.02
2017-12-09T23:05:01.224Z,67.88
2017-12-09T23:07:28.818Z,69.47
2017-12-09T23:09:56.617Z,68.72
2017-12-09T23:12:24.406Z,70.52
2017-12-09T23:14:52.057Z,69.52
2017-12-09T23:17:19.885Z,71.39
2017-12-09T23:19:47.626Z,72.80
2017-12-09T23:22:17.041Z,73.05
2017-12-09T23:24:44.865Z,73.82
2017-12-09T23:27:12.505Z,76.36
2017-12-09T23:29:42.533Z,77.46
2017-12-09T23:32:10.105Z,78.19
2017-12-09T23:34:38.233Z,78.94
2017-12-09T23:37:06.292Z,79.41
2017-12-09T23:39:34.133Z,80.62
2017-12-09T23:42:01.678Z,81.06
2017-12-09T23:44:29.653Z,80.66
2017-12-09T23:46:58.175Z,80.84
2017-12-09T23:49:26.908Z,80.40
2017-12-09T23:51:54.473Z,80.66
2017-12-09T23:54:22.132Z,80.81
2017-12-09T23:56:49.730Z,80.48
2017-12-09T23:59:17.529Z,81.05
